sensor_id;sensor_type;location;lat;lon;timestamp;P1;durP1;ratioP1;P2;durP2;ratioP2
77726;SDS011;68312;53.502;10.030;2023-04-01T00:01:00;7.80;;;3.80;;
77726;SDS011;68312;53.502;10.030;2023-04-01T00:03:28;7.25;;;3.72;;
77726;SDS011;68312;53.502;10.030;2023-04-01T00:05:56;9.25;;;3.60;;
77726;SDS011;68312;53.502;10.030;2023-04-01T00:08:24;10.05;;;3.67;;
77726;SDS011;68312;53.502;10.030;2023-04-01T00:10:51;5.78;;;3.33;;
77726;SDS011;68312;53.502;10.030;2023-04-01T00:13:19;6.93;;;3.42;;
77726;SDS011;68312;53.502;10.030;2023-04-01T00:15:45;7.90;;;3.65;;
77726;SDS011;68312;53.502;10.030;2023-04-01T00:18:12;10.68;;;4.15;;
77726;SDS011;68312;53.502;10.030;2023-04-01T00:20:38;5.38;;;3.08;;
77726;SDS011;68312;53.502;10.030;2023-04-01T00:23:07;9.38;;;3.30;;
77726;SDS011;68312;53.502;10.030;2023-04-01T00:25:33;9.02;;;3.72;;
77726;SDS011;68312;53.502;10.030;2023-04-01T00:27:58;8.43;;;3.53;;
77726;SDS011;68312;53.502;10.030;2023-04-01T00:30:24;8.52;;;3.50;;
77726;SDS011;68312;53.502;10.030;2023-04-01T00:32:53;8.50;;;3.92;;
77726;SDS011;68312;53.502;10.030;2023-04-01T00:35:19;7.55;;;3.38;;
77726;SDS011;68312;53.502;10.030;2023-04-01T00:37:44;9.95;;;3.40;;
77726;SDS011;68312;53.502;10.030;2023-04-01T00:40:21;8.45;;;3.05;;
77726;SDS011;68312;53.502;10.030;2023-04-01T00:42:55;9.55;;;3.67;;
77726;SDS011;68312;53.502;10.030;2023-04-01T00:48:07;8.48;;;3.42;;
77726;SDS011;68312;53.502;10.030;2023-04-01T00:50:42;8.80;;;3.00;;
77726;SDS011;68312;53.502;10.030;2023-04-01T00:53:16;7.38;;;3.80;;
77726;SDS011;68312;53.502;10.030;2023-04-01T00:55:50;9.57;;;3.60;;
77726;SDS011;68312;53.502;10.030;2023-04-01T00:58:36;12.07;;;3.85;;
77726;SDS011;68312;53.502;10.030;2023-04-01T01:01:16;8.43;;;3.60;;
77726;SDS011;68312;53.502;10.030;2023-04-01T01:03:42;8.20;;;3.95;;
77726;SDS011;68312;53.502;10.030;2023-04-01T01:06:10;8.43;;;3.42;;
77726;SDS011;68312;53.502;10.030;2023-04-01T01:09:38;8.48;;;3.28;;
77726;SDS011;68312;53.502;10.030;2023-04-01T01:12:50;11.32;;;3.80;;
77726;SDS011;68312;53.502;10.030;2023-04-01T01:15:56;7.72;;;3.97;;
77726;SDS011;68312;53.502;10.030;2023-04-01T01:18:35;6.70;;;3.10;;
77726;SDS011;68312;53.502;10.030;2023-04-01T01:24:32;7.05;;;3.30;;
77726;SDS011;68312;53.502;10.030;2023-04-01T01:27:58;7.93;;;3.25;;
77726;SDS011;68312;53.502;10.030;2023-04-01T01:31:14;7.25;;;2.75;;
77726;SDS011;68312;53.502;10.030;2023-04-01T01:37:41;6.32;;;3.13;;
77726;SDS011;68312;53.502;10.030;2023-04-01T01:40:11;9.10;;;3.22;;
77726;SDS011;68312;53.502;10.030;2023-04-01T01:42:40;9.20;;;3.35;;
77726;SDS011;68312;53.502;10.030;2023-04-01T01:45:15;9.13;;;3.08;;
77726;SDS011;68312;53.502;10.030;2023-04-01T01:47:48;5.90;;;2.80;;
77726;SDS011;68312;53.502;10.030;2023-04-01T01:50:16;9.38;;;3.00;;
77726;SDS011;68312;53.502;10.030;2023-04-01T01:52:44;8.13;;;3.25;;
77726;SDS011;68312;53.502;10.030;2023-04-01T01:58:00;9.20;;;3.25;;
77726;SDS011;68312;53.502;10.030;2023-04-01T02:00:39;8.20;;;3.20;;
77726;SDS011;68312;53.502;10.030;2023-04-01T02:03:14;6.93;;;3.38;;
77726;SDS011;68312;53.502;10.030;2023-04-01T02:05:43;10.82;;;3.50;;
77726;SDS011;68312;53.502;10.030;2023-04-01T02:08:12;8.27;;;3.50;;
77726;SDS011;68312;53.502;10.030;2023-04-01T02:10:55;11.90;;;3.28;;
77726;SDS011;68312;53.502;10.030;2023-04-01T02:13:29;7.32;;;3.55;;
77726;SDS011;68312;53.502;10.030;2023-04-01T02:16:05;7.50;;;3.70;;
77726;SDS011;68312;53.502;10.030;2023-04-01T02:18:46;8.43;;;4.03;;
77726;SDS011;68312;53.502;10.030;2023-04-01T02:21:18;9.20;;;3.55;;
77726;SDS011;68312;53.502;10.030;2023-04-01T02:23:50;7.28;;;3.72;;
77726;SDS011;68312;53.502;10.030;2023-04-01T02:26:21;6.18;;;3.08;;
77726;SDS011;68312;53.502;10.030;2023-04-01T02:28:51;13.52;;;3.70;;
77726;SDS011;68312;53.502;10.030;2023-04-01T02:31:21;7.18;;;3.15;;
77726;SDS011;68312;53.502;10.030;2023-04-01T02:33:48;8.68;;;3.40;;
77726;SDS011;68312;53.502;10.030;2023-04-01T02:36:15;6.72;;;3.17;;
77726;SDS011;68312;53.502;10.030;2023-04-01T02:38:43;10.25;;;3.58;;
77726;SDS011;68312;53.502;10.030;2023-04-01T02:41:13;6.43;;;3.20;;
77726;SDS011;68312;53.502;10.030;2023-04-01T02:43:39;7.95;;;3.53;;
77726;SDS011;68312;53.502;10.030;2023-04-01T02:46:04;8.70;;;3.63;;
77726;SDS011;68312;53.502;10.030;2023-04-01T02:48:30;8.00;;;3.60;;
77726;SDS011;68312;53.502;10.030;2023-04-01T02:50:56;8.82;;;3.50;;
77726;SDS011;68312;53.502;10.030;2023-04-01T02:53:22;8.52;;;3.65;;
77726;SDS011;68312;53.502;10.030;2023-04-01T02:55:47;7.90;;;2.75;;
77726;SDS011;68312;53.502;10.030;2023-04-01T02:58:15;6.97;;;3.15;;
77726;SDS011;68312;53.502;10.030;2023-04-01T03:00:41;18.55;;;4.05;;
77726;SDS011;68312;53.502;10.030;2023-04-01T03:03:08;7.57;;;3.22;;
77726;SDS011;68312;53.502;10.030;2023-04-01T03:05:34;7.68;;;3.40;;
77726;SDS011;68312;53.502;10.030;2023-04-01T03:08:00;8.88;;;3.90;;
77726;SDS011;68312;53.502;10.030;2023-04-01T03:10:26;10.10;;;3.33;;
77726;SDS011;68312;53.502;10.030;2023-04-01T03:12:51;7.88;;;3.08;;
77726;SDS011;68312;53.502;10.030;2023-04-01T03:15:17;7.05;;;3.50;;
77726;SDS011;68312;53.502;10.030;2023-04-01T03:17:43;7.68;;;2.80;;
77726;SDS011;68312;53.502;10.030;2023-04-01T03:20:08;7.32;;;3.10;;
77726;SDS011;68312;53.502;10.030;2023-04-01T03:22:36;7.57;;;3.45;;
77726;SDS011;68312;53.502;10.030;2023-04-01T03:25:03;8.07;;;3.05;;
77726;SDS011;68312;53.502;10.030;2023-04-01T03:27:32;8.82;;;3.38;;
77726;SDS011;68312;53.502;10.030;2023-04-01T03:29:59;13.20;;;3.05;;
77726;SDS011;68312;53.502;10.030;2023-04-01T03:32:25;6.78;;;2.90;;
77726;SDS011;68312;53.502;10.030;2023-04-01T03:34:52;8.68;;;3.22;;
77726;SDS011;68312;53.502;10.030;2023-04-01T03:37:17;9.75;;;3.20;;
77726;SDS011;68312;53.502;10.030;2023-04-01T03:39:43;7.85;;;3.00;;
77726;SDS011;68312;53.502;10.030;2023-04-01T03:42:08;11.63;;;3.08;;
77726;SDS011;68312;53.502;10.030;2023-04-01T03:44:34;8.13;;;3.15;;
77726;SDS011;68312;53.502;10.030;2023-04-01T03:47:00;10.90;;;3.30;;
77726;SDS011;68312;53.502;10.030;2023-04-01T03:49:26;6.60;;;3.17;;
77726;SDS011;68312;53.502;10.030;2023-04-01T03:51:52;7.93;;;3.17;;
77726;SDS011;68312;53.502;10.030;2023-04-01T03:54:17;6.78;;;2.85;;
77726;SDS011;68312;53.502;10.030;2023-04-01T03:56:44;6.13;;;2.70;;
77726;SDS011;68312;53.502;10.030;2023-04-01T03:59:10;6.35;;;2.97;;
77726;SDS011;68312;53.502;10.030;2023-04-01T04:01:37;6.32;;;3.10;;
77726;SDS011;68312;53.502;10.030;2023-04-01T04:04:02;6.47;;;3.17;;
77726;SDS011;68312;53.502;10.030;2023-04-01T04:06:28;5.88;;;2.63;;
77726;SDS011;68312;53.502;10.030;2023-04-01T04:08:54;6.55;;;2.67;;
77726;SDS011;68312;53.502;10.030;2023-04-01T04:11:20;8.07;;;3.35;;
77726;SDS011;68312;53.502;10.030;2023-04-01T04:13:47;5.95;;;3.08;;
77726;SDS011;68312;53.502;10.030;2023-04-01T04:16:14;10.07;;;3.47;;
77726;SDS011;68312;53.502;10.030;2023-04-01T04:18:41;10.55;;;3.53;;
77726;SDS011;68312;53.502;10.030;2023-04-01T04:21:10;6.55;;;2.88;;
77726;SDS011;68312;53.502;10.030;2023-04-01T04:23:39;7.07;;;3.35;;
77726;SDS011;68312;53.502;10.030;2023-04-01T04:26:08;6.25;;;3.10;;
77726;SDS011;68312;53.502;10.030;2023-04-01T04:28:37;7.72;;;3.30;;
77726;SDS011;68312;53.502;10.030;2023-04-01T04:31:04;6.60;;;3.25;;
77726;SDS011;68312;53.502;10.030;2023-04-01T04:33:31;8.40;;;3.75;;
77726;SDS011;68312;53.502;10.030;2023-04-01T04:35:57;6.88;;;2.83;;
77726;SDS011;68312;53.502;10.030;2023-04-01T04:38:24;10.43;;;3.15;;
77726;SDS011;68312;53.502;10.030;2023-04-01T04:40:51;7.03;;;3.20;;
77726;SDS011;68312;53.502;10.030;2023-04-01T04:43:17;8.75;;;3.58;;
77726;SDS011;68312;53.502;10.030;2023-04-01T04:45:43;10.27;;;3.42;;
77726;SDS011;68312;53.502;10.030;2023-04-01T04:48:10;7.40;;;3.10;;
77726;SDS011;68312;53.502;10.030;2023-04-01T04:50:43;8.77;;;3.80;;
77726;SDS011;68312;53.502;10.030;2023-04-01T04:53:12;10.60;;;3.40;;
77726;SDS011;68312;53.502;10.030;2023-04-01T04:55:46;6.57;;;3.33;;
77726;SDS011;68312;53.502;10.030;2023-04-01T04:58:15;8.32;;;3.33;;
77726;SDS011;68312;53.502;10.030;2023-04-01T05:00:42;8.27;;;3.58;;
77726;SDS011;68312;53.502;10.030;2023-04-01T05:03:08;5.72;;;3.45;;
77726;SDS011;68312;53.502;10.030;2023-04-01T05:05:34;9.27;;;3.65;;
77726;SDS011;68312;53.502;10.030;2023-04-01T05:08:00;10.02;;;3.60;;
77726;SDS011;68312;53.502;10.030;2023-04-01T05:10:26;7.78;;;4.13;;
77726;SDS011;68312;53.502;10.030;2023-04-01T05:12:51;9.40;;;3.60;;
77726;SDS011;68312;53.502;10.030;2023-04-01T05:15:17;7.10;;;4.15;;
77726;SDS011;68312;53.502;10.030;2023-04-01T05:17:42;8.30;;;3.90;;
77726;SDS011;68312;53.502;10.030;2023-04-01T05:20:08;6.50;;;3.30;;
77726;SDS011;68312;53.502;10.030;2023-04-01T05:22:34;6.93;;;3.60;;
77726;SDS011;68312;53.502;10.030;2023-04-01T05:25:00;5.53;;;3.10;;
77726;SDS011;68312;53.502;10.030;2023-04-01T05:27:25;7.60;;;3.70;;
77726;SDS011;68312;53.502;10.030;2023-04-01T05:29:51;6.93;;;3.53;;
77726;SDS011;68312;53.502;10.030;2023-04-01T05:32:16;6.50;;;3.40;;
77726;SDS011;68312;53.502;10.030;2023-04-01T05:34:42;7.80;;;3.80;;
77726;SDS011;68312;53.502;10.030;2023-04-01T05:37:08;6.18;;;3.40;;
77726;SDS011;68312;53.502;10.030;2023-04-01T05:39:36;10.73;;;4.63;;
77726;SDS011;68312;53.502;10.030;2023-04-01T05:42:05;6.75;;;3.45;;
77726;SDS011;68312;53.502;10.030;2023-04-01T05:44:32;6.20;;;3.50;;
77726;SDS011;68312;53.502;10.030;2023-04-01T05:46:58;6.63;;;3.33;;
77726;SDS011;68312;53.502;10.030;2023-04-01T05:49:24;7.00;;;3.70;;
77726;SDS011;68312;53.502;10.030;2023-04-01T05:51:50;11.07;;;4.00;;
77726;SDS011;68312;53.502;10.030;2023-04-01T05:54:16;11.77;;;3.85;;
77726;SDS011;68312;53.502;10.030;2023-04-01T05:56:43;9.38;;;3.50;;
77726;SDS011;68312;53.502;10.030;2023-04-01T05:59:09;8.02;;;3.67;;
77726;SDS011;68312;53.502;10.030;2023-04-01T06:01:35;7.10;;;3.80;;
77726;SDS011;68312;53.502;10.030;2023-04-01T06:04:01;4.25;;;2.17;;
77726;SDS011;68312;53.502;10.030;2023-04-01T06:06:28;2.70;;;1.30;;
77726;SDS011;68312;53.502;10.030;2023-04-01T06:09:07;1.63;;;0.70;;
77726;SDS011;68312;53.502;10.030;2023-04-01T06:36:32;1.65;;;0.80;;
77726;SDS011;68312;53.502;10.030;2023-04-01T06:39:37;1.40;;;0.70;;
77726;SDS011;68312;53.502;10.030;2023-04-01T06:42:16;1.80;;;0.70;;
77726;SDS011;68312;53.502;10.030;2023-04-01T06:45:14;1.92;;;0.80;;
77726;SDS011;68312;53.502;10.030;2023-04-01T06:51:42;1.50;;;0.60;;
77726;SDS011;68312;53.502;10.030;2023-04-01T06:54:42;2.03;;;0.75;;
77726;SDS011;68312;53.502;10.030;2023-04-01T06:57:20;4.18;;;1.10;;
77726;SDS011;68312;53.502;10.030;2023-04-01T06:59:59;1.60;;;0.80;;
77726;SDS011;68312;53.502;10.030;2023-04-01T07:02:41;1.67;;;0.60;;
77726;SDS011;68312;53.502;10.030;2023-04-01T07:05:23;1.60;;;0.80;;
77726;SDS011;68312;53.502;10.030;2023-04-01T07:07:56;1.85;;;0.90;;
77726;SDS011;68312;53.502;10.030;2023-04-01T07:10:35;1.88;;;0.77;;
77726;SDS011;68312;53.502;10.030;2023-04-01T07:13:25;1.73;;;0.60;;
77726;SDS011;68312;53.502;10.030;2023-04-01T07:18:53;1.00;;;0.57;;
77726;SDS011;68312;53.502;10.030;2023-04-01T07:24:27;1.17;;;0.50;;
77726;SDS011;68312;53.502;10.030;2023-04-01T07:27:03;1.13;;;0.50;;
77726;SDS011;68312;53.502;10.030;2023-04-01T07:29:35;2.13;;;0.73;;
77726;SDS011;68312;53.502;10.030;2023-04-01T07:44:59;0.65;;;0.32;;
77726;SDS011;68312;53.502;10.030;2023-04-01T07:50:32;1.08;;;0.55;;
77726;SDS011;68312;53.502;10.030;2023-04-01T07:53:21;1.17;;;0.60;;
77726;SDS011;68312;53.502;10.030;2023-04-01T07:56:19;1.13;;;0.50;;
77726;SDS011;68312;53.502;10.030;2023-04-01T07:59:18;1.30;;;0.40;;
77726;SDS011;68312;53.502;10.030;2023-04-01T08:11:22;1.00;;;0.40;;
77726;SDS011;68312;53.502;10.030;2023-04-01T08:13:55;1.55;;;0.52;;
77726;SDS011;68312;53.502;10.030;2023-04-01T08:16:57;2.35;;;0.82;;
77726;SDS011;68312;53.502;10.030;2023-04-01T08:26:10;1.65;;;0.60;;
77726;SDS011;68312;53.502;10.030;2023-04-01T08:29:16;0.80;;;0.40;;
77726;SDS011;68312;53.502;10.030;2023-04-01T08:31:58;0.70;;;0.40;;
77726;SDS011;68312;53.502;10.030;2023-04-01T08:34:35;1.80;;;0.50;;
77726;SDS011;68312;53.502;10.030;2023-04-01T08:37:09;1.65;;;0.50;;
77726;SDS011;68312;53.502;10.030;2023-04-01T08:39:45;0.90;;;0.45;;
77726;SDS011;68312;53.502;10.030;2023-04-01T08:48:28;1.23;;;0.60;;
77726;SDS011;68312;53.502;10.030;2023-04-01T08:59:55;0.90;;;0.40;;
77726;SDS011;68312;53.502;10.030;2023-04-01T09:02:55;2.47;;;0.60;;
77726;SDS011;68312;53.502;10.030;2023-04-01T09:27:57;1.02;;;0.50;;
77726;SDS011;68312;53.502;10.030;2023-04-01T09:37:35;1.25;;;0.60;;
77726;SDS011;68312;53.502;10.030;2023-04-01T09:40:31;1.13;;;0.50;;
77726;SDS011;68312;53.502;10.030;2023-04-01T09:43:22;1.33;;;0.60;;
77726;SDS011;68312;53.502;10.030;2023-04-01T09:53:08;1.52;;;0.60;;
77726;SDS011;68312;53.502;10.030;2023-04-01T10:03:11;1.52;;;0.60;;
77726;SDS011;68312;53.502;10.030;2023-04-01T10:23:44;1.20;;;0.60;;
77726;SDS011;68312;53.502;10.030;2023-04-01T10:33:45;0.85;;;0.45;;
77726;SDS011;68312;53.502;10.030;2023-04-01T10:36:53;0.90;;;0.50;;
77726;SDS011;68312;53.502;10.030;2023-04-01T10:42:44;1.30;;;0.47;;
77726;SDS011;68312;53.502;10.030;2023-04-01T10:46:21;0.93;;;0.47;;
77726;SDS011;68312;53.502;10.030;2023-04-01T11:05:52;0.77;;;0.40;;
77726;SDS011;68312;53.502;10.030;2023-04-01T11:09:09;1.25;;;0.57;;
77726;SDS011;68312;53.502;10.030;2023-04-01T11:16:28;1.05;;;0.60;;
77726;SDS011;68312;53.502;10.030;2023-04-01T11:19:10;4.15;;;0.40;;
77726;SDS011;68312;53.502;10.030;2023-04-01T11:28:35;1.02;;;0.50;;
77726;SDS011;68312;53.502;10.030;2023-04-01T11:38:31;1.10;;;0.60;;
77726;SDS011;68312;53.502;10.030;2023-04-01T12:16:16;3.08;;;1.30;;
77726;SDS011;68312;53.502;10.030;2023-04-01T12:22:20;4.53;;;1.50;;
77726;SDS011;68312;53.502;10.030;2023-04-01T12:25:26;3.20;;;1.40;;
77726;SDS011;68312;53.502;10.030;2023-04-01T12:31:51;2.17;;;1.20;;
77726;SDS011;68312;53.502;10.030;2023-04-01T12:37:54;2.58;;;1.05;;
77726;SDS011;68312;53.502;10.030;2023-04-01T12:44:29;3.75;;;1.50;;
77726;SDS011;68312;53.502;10.030;2023-04-01T12:47:35;3.58;;;1.83;;
77726;SDS011;68312;53.502;10.030;2023-04-01T12:50:31;3.47;;;1.70;;
77726;SDS011;68312;53.502;10.030;2023-04-01T13:06:29;3.25;;;1.65;;
77726;SDS011;68312;53.502;10.030;2023-04-01T13:09:57;2.53;;;1.23;;
77726;SDS011;68312;53.502;10.030;2023-04-01T13:28:24;3.15;;;1.63;;
77726;SDS011;68312;53.502;10.030;2023-04-01T13:42:53;2.55;;;1.38;;
77726;SDS011;68312;53.502;10.030;2023-04-01T14:04:21;3.55;;;1.83;;
77726;SDS011;68312;53.502;10.030;2023-04-01T14:22:32;3.38;;;1.98;;
77726;SDS011;68312;53.502;10.030;2023-04-01T14:41:02;6.97;;;2.90;;
77726;SDS011;68312;53.502;10.030;2023-04-01T14:50:25;4.95;;;2.55;;
77726;SDS011;68312;53.502;10.030;2023-04-01T14:53:11;4.03;;;2.50;;
77726;SDS011;68312;53.502;10.030;2023-04-01T14:55:57;6.90;;;2.72;;
77726;SDS011;68312;53.502;10.030;2023-04-01T14:58:47;4.30;;;2.50;;
77726;SDS011;68312;53.502;10.030;2023-04-01T15:13:34;4.80;;;2.10;;
77726;SDS011;68312;53.502;10.030;2023-04-01T15:16:34;6.30;;;2.58;;
77726;SDS011;68312;53.502;10.030;2023-04-01T15:19:34;5.25;;;2.63;;
77726;SDS011;68312;53.502;10.030;2023-04-01T15:31:28;5.97;;;2.95;;
77726;SDS011;68312;53.502;10.030;2023-04-01T15:39:57;6.25;;;3.35;;
77726;SDS011;68312;53.502;10.030;2023-04-01T15:49:19;5.75;;;2.58;;
77726;SDS011;68312;53.502;10.030;2023-04-01T15:55:31;3.78;;;2.17;;
77726;SDS011;68312;53.502;10.030;2023-04-01T15:58:51;7.82;;;3.22;;
77726;SDS011;68312;53.502;10.030;2023-04-01T16:02:20;9.25;;;3.42;;
77726;SDS011;68312;53.502;10.030;2023-04-01T16:11:33;6.63;;;3.05;;
77726;SDS011;68312;53.502;10.030;2023-04-01T16:15:01;6.72;;;2.92;;
77726;SDS011;68312;53.502;10.030;2023-04-01T16:18:09;8.43;;;2.92;;
77726;SDS011;68312;53.502;10.030;2023-04-01T16:24:34;8.07;;;3.10;;
77726;SDS011;68312;53.502;10.030;2023-04-01T16:43:28;9.73;;;3.05;;
77726;SDS011;68312;53.502;10.030;2023-04-01T16:48:59;8.77;;;3.78;;
77726;SDS011;68312;53.502;10.030;2023-04-01T16:52:00;9.23;;;2.88;;
77726;SDS011;68312;53.502;10.030;2023-04-01T17:03:17;11.15;;;4.03;;
77726;SDS011;68312;53.502;10.030;2023-04-01T17:14:51;9.15;;;2.80;;
77726;SDS011;68312;53.502;10.030;2023-04-01T17:24:16;6.70;;;3.15;;
77726;SDS011;68312;53.502;10.030;2023-04-01T17:35:59;7.43;;;3.17;;
77726;SDS011;68312;53.502;10.030;2023-04-01T17:42:34;7.05;;;2.53;;
77726;SDS011;68312;53.502;10.030;2023-04-01T17:45:31;6.63;;;3.45;;
77726;SDS011;68312;53.502;10.030;2023-04-01T17:51:20;6.07;;;2.65;;
77726;SDS011;68312;53.502;10.030;2023-04-01T18:00:30;5.90;;;2.40;;
77726;SDS011;68312;53.502;10.030;2023-04-01T18:03:25;8.38;;;2.75;;
77726;SDS011;68312;53.502;10.030;2023-04-01T18:09:35;5.22;;;2.65;;
77726;SDS011;68312;53.502;10.030;2023-04-01T18:19:03;6.70;;;2.90;;
77726;SDS011;68312;53.502;10.030;2023-04-01T18:21:54;4.85;;;2.25;;
77726;SDS011;68312;53.502;10.030;2023-04-01T18:27:44;3.78;;;2.22;;
77726;SDS011;68312;53.502;10.030;2023-04-01T18:30:22;8.38;;;2.60;;
77726;SDS011;68312;53.502;10.030;2023-04-01T18:32:59;4.10;;;2.22;;
77726;SDS011;68312;53.502;10.030;2023-04-01T18:35:53;5.22;;;2.67;;
77726;SDS011;68312;53.502;10.030;2023-04-01T18:39:07;3.72;;;2.05;;
77726;SDS011;68312;53.502;10.030;2023-04-01T18:41:50;6.90;;;3.13;;
77726;SDS011;68312;53.502;10.030;2023-04-01T18:44:41;3.35;;;2.40;;
77726;SDS011;68312;53.502;10.030;2023-04-01T18:50:18;7.22;;;3.40;;
77726;SDS011;68312;53.502;10.030;2023-04-01T19:02:14;9.63;;;2.83;;
77726;SDS011;68312;53.502;10.030;2023-04-01T19:05:09;5.15;;;2.78;;
77726;SDS011;68312;53.502;10.030;2023-04-01T19:13:22;5.60;;;2.67;;
77726;SDS011;68312;53.502;10.030;2023-04-01T19:19:07;6.97;;;3.15;;
77726;SDS011;68312;53.502;10.030;2023-04-01T19:22:35;6.38;;;2.85;;
77726;SDS011;68312;53.502;10.030;2023-04-01T19:25:38;6.35;;;2.60;;
77726;SDS011;68312;53.502;10.030;2023-04-01T19:34:11;4.32;;;2.65;;
77726;SDS011;68312;53.502;10.030;2023-04-01T19:36:54;6.38;;;2.60;;
77726;SDS011;68312;53.502;10.030;2023-04-01T19:46:44;5.80;;;1.83;;
77726;SDS011;68312;53.502;10.030;2023-04-01T19:55:06;5.13;;;2.13;;
77726;SDS011;68312;53.502;10.030;2023-04-01T20:00:49;3.83;;;2.05;;
77726;SDS011;68312;53.502;10.030;2023-04-01T20:03:30;4.45;;;1.77;;
77726;SDS011;68312;53.502;10.030;2023-04-01T20:09:00;4.30;;;1.67;;
77726;SDS011;68312;53.502;10.030;2023-04-01T20:15:44;3.13;;;1.42;;
77726;SDS011;68312;53.502;10.030;2023-04-01T20:18:37;3.58;;;1.38;;
77726;SDS011;68312;53.502;10.030;2023-04-01T20:21:51;3.75;;;1.42;;
77726;SDS011;68312;53.502;10.030;2023-04-01T20:29:41;3.67;;;1.70;;
77726;SDS011;68312;53.502;10.030;2023-04-01T20:42:22;5.32;;;2.28;;
77726;SDS011;68312;53.502;10.030;2023-04-01T20:48:46;7.45;;;2.30;;
77726;SDS011;68312;53.502;10.030;2023-04-01T20:51:53;4.28;;;1.52;;
77726;SDS011;68312;53.502;10.030;2023-04-01T21:01:07;5.28;;;2.08;;
77726;SDS011;68312;53.502;10.030;2023-04-01T21:17:42;6.15;;;1.63;;
77726;SDS011;68312;53.502;10.030;2023-04-01T21:21:12;3.78;;;1.70;;
77726;SDS011;68312;53.502;10.030;2023-04-01T21:27:34;11.95;;;1.83;;
77726;SDS011;68312;53.502;10.030;2023-04-01T21:36:52;3.80;;;1.50;;
77726;SDS011;68312;53.502;10.030;2023-04-01T21:43:21;3.67;;;1.73;;
77726;SDS011;68312;53.502;10.030;2023-04-01T22:06:04;4.38;;;1.60;;
77726;SDS011;68312;53.502;10.030;2023-04-01T22:17:52;2.30;;;1.05;;
77726;SDS011;68312;53.502;10.030;2023-04-01T22:23:32;4.40;;;0.90;;
77726;SDS011;68312;53.502;10.030;2023-04-01T22:26:12;6.90;;;1.35;;
77726;SDS011;68312;53.502;10.030;2023-04-01T22:32:16;5.45;;;1.20;;
77726;SDS011;68312;53.502;10.030;2023-04-01T22:40:39;2.65;;;1.00;;
77726;SDS011;68312;53.502;10.030;2023-04-01T22:43:25;4.97;;;1.17;;
77726;SDS011;68312;53.502;10.030;2023-04-01T22:49:38;4.28;;;1.02;;
77726;SDS011;68312;53.502;10.030;2023-04-01T22:55:12;2.92;;;1.10;;
77726;SDS011;68312;53.502;10.030;2023-04-01T22:58:03;3.80;;;1.52;;
77726;SDS011;68312;53.502;10.030;2023-04-01T23:00:51;4.22;;;1.13;;
77726;SDS011;68312;53.502;10.030;2023-04-01T23:03:27;2.28;;;1.13;;
77726;SDS011;68312;53.502;10.030;2023-04-01T23:05:59;2.57;;;1.30;;
77726;SDS011;68312;53.502;10.030;2023-04-01T23:11:28;3.33;;;1.30;;
77726;SDS011;68312;53.502;10.030;2023-04-01T23:23:22;2.00;;;1.05;;
77726;SDS011;68312;53.502;10.030;2023-04-01T23:26:06;4.93;;;1.20;;
77726;SDS011;68312;53.502;10.030;2023-04-01T23:29:13;3.30;;;1.23;;
77726;SDS011;68312;53.502;10.030;2023-04-01T23:37:02;3.67;;;1.02;;
77726;SDS011;68312;53.502;10.030;2023-04-01T23:39:36;5.40;;;1.73;;
77726;SDS011;68312;53.502;10.030;2023-04-01T23:45:31;4.22;;;0.93;;
77726;SDS011;68312;53.502;10.030;2023-04-01T23:47:50;6.35;;;1.65;;
77726;SDS011;68312;53.502;10.030;2023-04-01T23:50:18;5.20;;;1.30;;
77726;SDS011;68312;53.502;10.030;2023-04-01T23:52:53;6.63;;;1.83;;
77726;SDS011;68312;53.502;10.030;2023-04-01T23:55:32;6.78;;;1.10;;
